createdAt,value
2022-10-07T00:00:52.100Z,55.58
2022-10-07T00:03:21.055Z,56.05
2022-10-07T00:05:58.943Z,55.98
2022-10-07T00:08:25.745Z,55.91
2022-10-07T00:10:52.645Z,55.80
2022-10-07T00:13:19.534Z,55.31
2022-10-07T00:15:46.315Z,55.29
2022-10-07T00:18:13.223Z,56.70
2022-10-07T00:20:40.786Z,56.40
2022-10-07T00:23:08.147Z,56.16
2022-10-07T00:25:38.250Z,56.43
2022-10-07T00:28:05.843Z,55.11
2022-10-07T00:30:32.953Z,55.87
2022-10-07T00:32:59.895Z,55.17
2022-10-07T00:35:26.819Z,56.08
2022-10-07T00:37:54.347Z,56.47
2022-10-07T00:40:21.244Z,57.60
2022-10-07T00:42:48.052Z,58.65
2022-10-07T00:45:19.518Z,58.66
2022-10-07T00:47:49.755Z,58.76
2022-10-07T00:50:25.935Z,59.52
2022-10-07T00:52:59.702Z,59.56
2022-10-07T00:55:29.417Z,60.01
2022-10-07T00:58:01.558Z,60.31
2022-10-07T01:00:28.335Z,59.95
2022-10-07T01:02:55.332Z,59.87
2022-10-07T01:05:22.218Z,59.74
2022-10-07T01:07:50.917Z,59.30
2022-10-07T01:10:21.785Z,60.24
2022-10-07T01:13:07.063Z,59.25
2022-10-07T01:15:44.367Z,58.70
2022-10-07T01:18:21.226Z,58.97
2022-10-07T01:21:03.574Z,58.94
2022-10-07T01:23:56.271Z,58.42
2022-10-07T01:26:54.237Z,58.27
2022-10-07T01:29:55.991Z,58.87
2022-10-07T01:32:32.239Z,58.39
2022-10-07T01:35:01.976Z,58.29
2022-10-07T01:37:35.178Z,59.01
2022-10-07T01:40:07.497Z,58.40
2022-10-07T01:42:34.617Z,58.00
2022-10-07T01:45:03.156Z,58.24
2022-10-07T01:47:30.132Z,58.35
2022-10-07T01:49:56.980Z,58.88
2022-10-07T01:52:44.676Z,58.40
2022-10-07T01:55:50.408Z,58.73
2022-10-07T01:58:27.023Z,57.65
2022-10-07T02:01:06.455Z,58.26
2022-10-07T02:03:38.933Z,57.67
2022-10-07T02:06:06.020Z,56.87
2022-10-07T02:08:40.513Z,56.56
2022-10-07T02:11:23.658Z,57.43
2022-10-07T02:14:12.046Z,56.61
2022-10-07T02:16:48.350Z,56.86
2022-10-07T02:19:31.188Z,57.52
2022-10-07T02:22:02.153Z,56.69
2022-10-07T02:24:34.925Z,57.50
2022-10-07T02:27:13.974Z,56.59
2022-10-07T02:29:47.057Z,57.71
2022-10-07T02:32:19.986Z,58.57
2022-10-07T02:34:53.673Z,58.68
2022-10-07T02:37:25.646Z,57.83
2022-10-07T02:39:55.491Z,57.86
2022-10-07T02:42:39.576Z,58.26
2022-10-07T02:45:26.608Z,57.81
2022-10-07T02:48:21.484Z,58.61
2022-10-07T02:50:55.373Z,57.01
2022-10-07T02:53:29.096Z,57.43
2022-10-07T02:55:57.730Z,57.06
2022-10-07T02:58:26.633Z,56.81
2022-10-07T03:00:59.822Z,56.39
2022-10-07T03:03:27.777Z,54.98
2022-10-07T03:06:05.768Z,55.36
2022-10-07T03:08:35.344Z,56.00
2022-10-07T03:11:02.514Z,54.16
2022-10-07T03:13:31.330Z,55.19
2022-10-07T03:16:04.159Z,55.29
2022-10-07T03:18:32.383Z,55.42
2022-10-07T03:21:09.855Z,55.86
2022-10-07T03:23:38.035Z,56.91
2022-10-07T03:26:05.184Z,57.25
2022-10-07T03:28:37.697Z,57.21
2022-10-07T03:31:11.822Z,57.02
2022-10-07T03:33:43.962Z,56.77
2022-10-07T03:36:10.848Z,57.62
2022-10-07T03:38:40.519Z,57.96
2022-10-07T03:41:09.248Z,58.38
2022-10-07T03:43:36.062Z,57.81
2022-10-07T03:46:05.736Z,57.21
2022-10-07T03:48:35.433Z,56.71
2022-10-07T03:51:02.525Z,56.38
2022-10-07T03:53:31.519Z,57.12
2022-10-07T03:56:00.804Z,56.17
2022-10-07T03:58:29.688Z,56.80
2022-10-07T04:01:16.171Z,56.25
2022-10-07T04:03:53.771Z,56.60
2022-10-07T04:06:20.576Z,56.39
2022-10-07T04:08:52.986Z,56.86
2022-10-07T04:11:20.167Z,56.75
2022-10-07T04:13:48.134Z,56.32
2022-10-07T04:16:17.888Z,57.19
2022-10-07T04:18:45.427Z,57.86
2022-10-07T04:21:12.480Z,57.63
2022-10-07T04:23:41.307Z,57.41
2022-10-07T04:26:10.638Z,58.05
2022-10-07T04:28:42.008Z,57.35
2022-10-07T04:31:12.586Z,58.13
2022-10-07T04:33:42.564Z,57.85
2022-10-07T04:36:12.944Z,57.65
2022-10-07T04:38:54.620Z,56.96
2022-10-07T04:41:26.318Z,58.17
2022-10-07T04:43:57.667Z,57.62
2022-10-07T04:46:28.556Z,56.90
2022-10-07T04:49:10.685Z,56.78
2022-10-07T04:51:38.057Z,57.67
2022-10-07T04:54:05.533Z,57.18
2022-10-07T04:56:38.898Z,56.65
2022-10-07T04:59:08.321Z,58.62
2022-10-07T05:01:37.037Z,58.42
2022-10-07T05:04:04.269Z,59.52
2022-10-07T05:06:33.576Z,58.26
2022-10-07T05:09:00.751Z,57.78
2022-10-07T05:11:28.543Z,57.96
2022-10-07T05:14:05.280Z,57.03
2022-10-07T05:16:33.024Z,57.30
2022-10-07T05:19:00.149Z,56.07
2022-10-07T05:21:27.786Z,56.57
2022-10-07T05:23:54.722Z,55.69
2022-10-07T05:26:28.048Z,55.78
2022-10-07T05:28:58.410Z,56.70
2022-10-07T05:31:31.682Z,56.50
2022-10-07T05:34:03.069Z,56.67
2022-10-07T05:36:30.545Z,55.67
2022-10-07T05:38:59.509Z,55.72
2022-10-07T05:41:45.659Z,55.02
2022-10-07T05:44:16.690Z,55.26
2022-10-07T05:46:44.225Z,55.35
2022-10-07T05:49:12.696Z,54.62
2022-10-07T05:51:40.722Z,54.82
2022-10-07T05:54:08.572Z,54.29
2022-10-07T05:56:39.810Z,54.49
2022-10-07T05:59:06.741Z,54.64
2022-10-07T06:01:34.352Z,53.45
2022-10-07T06:04:08.205Z,53.40
2022-10-07T06:06:38.852Z,53.02
2022-10-07T06:09:27.637Z,52.56
2022-10-07T06:12:14.377Z,52.15
2022-10-07T06:14:42.246Z,51.36
2022-10-07T06:17:09.827Z,48.86
2022-10-07T06:19:38.301Z,48.27
2022-10-07T06:22:05.500Z,47.98
2022-10-07T06:24:35.311Z,46.46
2022-10-07T06:27:02.891Z,45.59
2022-10-07T06:29:30.634Z,45.65
2022-10-07T06:31:58.037Z,45.88
2022-10-07T06:34:25.926Z,46.26
2022-10-07T06:36:54.681Z,46.77
2022-10-07T06:39:21.725Z,44.01
2022-10-07T06:41:52.451Z,43.62
2022-10-07T06:44:33.178Z,43.68
2022-10-07T06:47:01.177Z,42.89
2022-10-07T06:49:28.012Z,41.52
2022-10-07T06:51:54.915Z,41.06
2022-10-07T06:54:22.336Z,40.76
2022-10-07T06:56:49.418Z,41.19
2022-10-07T06:59:17.216Z,40.83
2022-10-07T07:01:54.452Z,40.52
2022-10-07T07:04:23.144Z,40.32
2022-10-07T07:06:50.169Z,40.17
2022-10-07T07:09:17.077Z,39.74
2022-10-07T07:11:46.196Z,40.19
2022-10-07T07:14:20.005Z,39.08
2022-10-07T07:17:00.005Z,39.08
2022-10-07T07:19:27.515Z,39.51
2022-10-07T07:21:55.678Z,38.29
2022-10-07T07:24:24.647Z,38.85
2022-10-07T07:26:52.379Z,37.84
2022-10-07T07:29:20.774Z,37.92
2022-10-07T07:31:52.470Z,37.41
2022-10-07T07:34:22.100Z,37.64
2022-10-07T07:36:53.549Z,36.61
2022-10-07T07:39:24.520Z,36.83
2022-10-07T07:41:57.889Z,36.72
2022-10-07T07:44:25.949Z,36.54
2022-10-07T07:46:56.215Z,35.51
2022-10-07T07:49:24.621Z,36.07
2022-10-07T07:51:52.310Z,36.05
2022-10-07T07:54:27.265Z,35.25
2022-10-07T07:56:56.216Z,36.10
2022-10-07T07:59:25.419Z,35.88
2022-10-07T08:01:55.630Z,35.73
2022-10-07T08:04:22.909Z,35.73
2022-10-07T08:06:50.540Z,35.19
2022-10-07T08:09:17.811Z,35.91
2022-10-07T08:11:47.075Z,34.70
2022-10-07T08:14:17.606Z,35.28
2022-10-07T08:16:47.440Z,34.96
2022-10-07T08:19:15.406Z,34.85
2022-10-07T08:21:42.617Z,33.85
2022-10-07T08:24:14.889Z,34.08
2022-10-07T08:26:41.783Z,34.72
2022-10-07T08:29:13.358Z,34.11
2022-10-07T08:31:42.516Z,33.03
2022-10-07T08:34:10.979Z,34.42
2022-10-07T08:36:38.276Z,33.90
2022-10-07T08:39:05.703Z,33.08
2022-10-07T08:41:45.875Z,32.90
2022-10-07T08:44:18.487Z,32.42
2022-10-07T08:47:01.030Z,32.75
2022-10-07T08:49:36.663Z,33.33
2022-10-07T08:52:21.053Z,32.31
2022-10-07T08:54:47.996Z,32.74
2022-10-07T08:57:31.463Z,31.17
2022-10-07T09:00:05.734Z,29.70
2022-10-07T09:02:58.958Z,31.37
2022-10-07T09:05:29.850Z,30.85
2022-10-07T09:08:01.452Z,30.50
2022-10-07T09:10:49.687Z,28.57
2022-10-07T09:13:21.403Z,27.10
2022-10-07T09:16:26.619Z,25.80
2022-10-07T09:18:56.993Z,27.17
2022-10-07T09:21:41.810Z,26.21
2022-10-07T09:24:23.249Z,25.32
2022-10-07T09:26:55.327Z,25.06
2022-10-07T09:29:28.937Z,26.51
2022-10-07T09:31:58.248Z,25.23
2022-10-07T09:34:28.015Z,24.47
2022-10-07T09:37:19.291Z,24.00
2022-10-07T09:39:49.576Z,23.70
2022-10-07T09:42:40.038Z,24.23
2022-10-07T09:45:26.236Z,23.68
2022-10-07T09:48:17.731Z,24.78
2022-10-07T09:50:46.776Z,24.96
2022-10-07T09:53:29.032Z,23.21
2022-10-07T09:55:55.971Z,24.32
2022-10-07T09:58:31.213Z,24.66
2022-10-07T10:01:02.133Z,23.03
2022-10-07T10:03:35.298Z,23.32
2022-10-07T10:06:04.990Z,23.65
2022-10-07T10:08:35.437Z,25.16
2022-10-07T10:11:20.981Z,23.81
2022-10-07T10:13:50.112Z,22.60
2022-10-07T10:16:28.970Z,23.57
2022-10-07T10:19:02.253Z,23.65
2022-10-07T10:21:30.706Z,22.66
2022-10-07T10:24:06.112Z,24.21
2022-10-07T10:26:48.509Z,24.06
2022-10-07T10:29:38.924Z,23.13
2022-10-07T10:32:17.003Z,23.88
2022-10-07T10:35:09.905Z,22.66
2022-10-07T10:38:11.050Z,23.81
2022-10-07T10:40:47.853Z,23.38
2022-10-07T10:43:16.516Z,22.36
2022-10-07T10:46:07.987Z,21.12
2022-10-07T10:48:53.211Z,22.33
2022-10-07T10:51:38.229Z,21.38
2022-10-07T10:54:38.888Z,22.84
2022-10-07T10:57:29.331Z,21.46
2022-10-07T11:00:13.303Z,22.01
2022-10-07T11:02:40.897Z,21.46
2022-10-07T11:05:17.512Z,24.72
2022-10-07T11:07:51.093Z,25.09
2022-10-07T11:10:30.176Z,22.57
2022-10-07T11:13:35.702Z,22.48
2022-10-07T11:16:11.863Z,23.37
2022-10-07T11:18:47.065Z,23.45
2022-10-07T11:21:20.954Z,22.76
2022-10-07T11:24:16.890Z,22.22
2022-10-07T11:26:53.866Z,22.80
2022-10-07T11:29:33.961Z,22.91
2022-10-07T11:32:48.086Z,23.13
2022-10-07T11:35:34.677Z,23.27
2022-10-07T11:38:10.578Z,23.40
2022-10-07T11:40:49.144Z,24.15
2022-10-07T11:43:58.351Z,23.50
2022-10-07T11:46:40.754Z,23.20
2022-10-07T11:49:20.990Z,23.93
2022-10-07T11:51:57.887Z,24.96
2022-10-07T11:54:29.489Z,24.45
2022-10-07T11:56:58.489Z,24.61
2022-10-07T12:00:08.184Z,25.60
2022-10-07T12:02:46.246Z,25.19
2022-10-07T12:05:34.758Z,24.38
2022-10-07T12:08:23.893Z,24.18
2022-10-07T12:10:55.933Z,24.90
2022-10-07T12:13:22.719Z,25.35
2022-10-07T12:15:50.945Z,24.94
2022-10-07T12:18:27.714Z,24.89
2022-10-07T12:20:58.650Z,25.04
2022-10-07T12:23:32.316Z,23.89
2022-10-07T12:26:26.118Z,24.99
2022-10-07T12:28:53.713Z,24.46
2022-10-07T12:31:23.686Z,25.03
2022-10-07T12:33:58.082Z,22.70
2022-10-07T12:36:31.252Z,24.44
2022-10-07T12:39:01.557Z,24.12
2022-10-07T12:41:39.726Z,23.76
2022-10-07T12:44:22.887Z,23.90
2022-10-07T12:46:50.982Z,22.94
2022-10-07T12:49:23.677Z,24.38
2022-10-07T12:51:53.953Z,23.64
2022-10-07T12:54:51.660Z,24.33
2022-10-07T12:57:23.996Z,24.26
2022-10-07T13:00:01.602Z,24.81
2022-10-07T13:02:50.285Z,23.43
2022-10-07T13:05:32.210Z,24.37
2022-10-07T13:08:17.325Z,24.74
2022-10-07T13:10:55.331Z,24.92
2022-10-07T13:13:29.573Z,25.29
2022-10-07T13:16:02.460Z,24.09
2022-10-07T13:18:45.192Z,25.29
2022-10-07T13:21:27.519Z,25.06
2022-10-07T13:23:56.142Z,25.56
2022-10-07T13:26:26.003Z,25.31
2022-10-07T13:28:58.656Z,26.06
2022-10-07T13:31:31.106Z,25.20
2022-10-07T13:33:59.974Z,24.93
2022-10-07T13:36:33.079Z,24.68
2022-10-07T13:39:23.226Z,24.22
2022-10-07T13:41:55.572Z,24.87
2022-10-07T13:44:25.990Z,25.95
2022-10-07T13:47:00.236Z,26.28
2022-10-07T13:49:41.103Z,25.49
2022-10-07T13:52:35.501Z,25.54
2022-10-07T13:55:02.570Z,25.51
2022-10-07T13:57:31.381Z,25.68
2022-10-07T14:00:00.037Z,26.50
2022-10-07T14:02:27.955Z,27.12
2022-10-07T14:05:18.921Z,27.17
2022-10-07T14:07:45.751Z,26.89
2022-10-07T14:10:13.699Z,26.22
2022-10-07T14:12:50.061Z,27.33
2022-10-07T14:15:26.359Z,27.01
2022-10-07T14:17:55.310Z,25.93
2022-10-07T14:20:33.284Z,27.29
2022-10-07T14:23:06.111Z,26.53
2022-10-07T14:25:49.229Z,25.60
2022-10-07T14:28:25.123Z,25.92
2022-10-07T14:31:26.031Z,25.72
2022-10-07T14:34:35.618Z,26.53
2022-10-07T14:37:13.389Z,26.50
2022-10-07T14:39:42.594Z,26.14
2022-10-07T14:42:16.797Z,25.62
2022-10-07T14:44:44.565Z,26.16
2022-10-07T14:47:21.017Z,25.65
2022-10-07T14:49:48.510Z,25.98
2022-10-07T14:52:30.027Z,25.84
2022-10-07T14:55:03.297Z,26.11
2022-10-07T14:57:30.268Z,25.88
2022-10-07T14:59:57.104Z,26.10
2022-10-07T15:02:24.044Z,26.23
2022-10-07T15:04:50.923Z,25.95
2022-10-07T15:07:17.909Z,26.05
2022-10-07T15:09:45.744Z,27.05
2022-10-07T15:12:14.926Z,26.82
2022-10-07T15:14:42.203Z,26.50
2022-10-07T15:17:12.281Z,26.92
2022-10-07T15:19:39.281Z,27.88
2022-10-07T15:22:06.231Z,26.69
2022-10-07T15:24:34.247Z,26.82
2022-10-07T15:27:01.591Z,27.64
2022-10-07T15:29:28.471Z,27.66
2022-10-07T15:31:55.362Z,27.56
2022-10-07T15:34:22.818Z,27.53
2022-10-07T15:36:50.363Z,28.79
2022-10-07T15:39:17.315Z,28.50
2022-10-07T15:41:44.362Z,29.11
2022-10-07T15:44:16.233Z,28.27
2022-10-07T15:46:46.007Z,29.34
2022-10-07T15:49:12.995Z,29.36
2022-10-07T15:51:40.188Z,29.86
2022-10-07T15:54:07.277Z,30.55
2022-10-07T15:56:34.498Z,30.65
2022-10-07T15:59:02.211Z,29.55
2022-10-07T16:01:32.024Z,30.45
2022-10-07T16:04:00.738Z,30.08
2022-10-07T16:06:32.419Z,30.70
2022-10-07T16:09:00.203Z,30.45
2022-10-07T16:11:28.751Z,31.18
2022-10-07T16:13:55.687Z,30.19
2022-10-07T16:16:25.006Z,30.27
2022-10-07T16:18:53.944Z,30.21
2022-10-07T16:21:30.019Z,31.06
2022-10-07T16:23:59.193Z,31.74
2022-10-07T16:26:30.108Z,31.70
2022-10-07T16:29:19.455Z,30.89
2022-10-07T16:31:47.677Z,31.60
2022-10-07T16:34:16.547Z,31.30
2022-10-07T16:36:46.229Z,32.08
2022-10-07T16:39:13.538Z,32.09
2022-10-07T16:41:44.196Z,32.51
2022-10-07T16:44:11.387Z,32.04
2022-10-07T16:46:38.866Z,32.38
2022-10-07T16:49:07.745Z,32.28
2022-10-07T16:51:36.785Z,32.26
2022-10-07T16:54:07.392Z,32.00
2022-10-07T16:56:36.097Z,32.26
2022-10-07T16:59:05.639Z,32.80
2022-10-07T17:01:33.375Z,32.58
2022-10-07T17:04:01.379Z,32.87
2022-10-07T17:06:30.265Z,33.92
2022-10-07T17:09:04.326Z,33.42
2022-10-07T17:11:36.157Z,34.31
2022-10-07T17:14:04.970Z,34.11
2022-10-07T17:16:37.936Z,34.24
2022-10-07T17:19:06.472Z,33.15
2022-10-07T17:21:38.070Z,33.74
2022-10-07T17:24:05.165Z,34.69
2022-10-07T17:26:32.221Z,35.70
2022-10-07T17:29:06.651Z,36.47
2022-10-07T17:31:35.854Z,37.50
2022-10-07T17:34:05.512Z,37.40
2022-10-07T17:36:33.032Z,38.48
2022-10-07T17:38:59.959Z,39.54
2022-10-07T17:41:38.207Z,40.06
2022-10-07T17:44:10.409Z,41.23
2022-10-07T17:46:39.396Z,41.02
2022-10-07T17:49:08.760Z,41.58
2022-10-07T17:51:37.355Z,42.03
2022-10-07T17:54:06.135Z,42.54
2022-10-07T17:56:34.720Z,42.48
2022-10-07T17:59:02.763Z,43.24
2022-10-07T18:01:32.951Z,43.34
2022-10-07T18:04:26.160Z,43.08
2022-10-07T18:06:53.132Z,44.01
2022-10-07T18:09:22.155Z,43.86
2022-10-07T18:12:07.749Z,43.86
2022-10-07T18:14:54.372Z,44.86
2022-10-07T18:17:21.902Z,44.46
2022-10-07T18:19:48.744Z,45.22
2022-10-07T18:22:15.576Z,45.44
2022-10-07T18:24:42.577Z,45.63
2022-10-07T18:27:09.457Z,45.33
2022-10-07T18:29:38.198Z,46.05
2022-10-07T18:32:08.396Z,45.75
2022-10-07T18:34:35.539Z,46.37
2022-10-07T18:37:02.709Z,47.04
2022-10-07T18:39:29.896Z,46.98
2022-10-07T18:41:58.021Z,47.18
2022-10-07T18:44:25.725Z,47.30
2022-10-07T18:46:53.334Z,47.25
2022-10-07T18:49:20.233Z,46.99
2022-10-07T18:51:47.404Z,46.85
2022-10-07T18:54:14.302Z,46.49
2022-10-07T18:56:41.764Z,46.77
2022-10-07T18:59:10.326Z,46.72
2022-10-07T19:01:37.843Z,46.14
2022-10-07T19:04:06.732Z,46.44
2022-10-07T19:06:36.515Z,46.28
2022-10-07T19:09:09.063Z,45.39
2022-10-07T19:11:36.257Z,44.94
2022-10-07T19:14:03.462Z,45.03
2022-10-07T19:16:35.688Z,44.96
2022-10-07T19:19:08.813Z,45.09
2022-10-07T19:21:36.144Z,44.80
2022-10-07T19:24:04.493Z,44.50
2022-10-07T19:26:37.580Z,44.57
2022-10-07T19:29:06.462Z,44.95
2022-10-07T19:31:40.427Z,44.63
2022-10-07T19:34:10.328Z,45.29
2022-10-07T19:36:40.231Z,45.05
2022-10-07T19:39:08.149Z,45.58
2022-10-07T19:41:36.105Z,45.72
2022-10-07T19:44:04.534Z,45.49
2022-10-07T19:46:33.500Z,46.09
2022-10-07T19:49:02.553Z,45.53
2022-10-07T19:51:31.437Z,46.27
2022-10-07T19:54:00.084Z,47.27
2022-10-07T19:56:31.763Z,46.58
2022-10-07T19:59:01.110Z,46.49
2022-10-07T20:01:32.320Z,46.59
2022-10-07T20:04:13.959Z,48.02
2022-10-07T20:06:41.681Z,47.42
2022-10-07T20:09:11.570Z,47.65
2022-10-07T20:11:38.421Z,48.69
2022-10-07T20:14:06.729Z,48.71
2022-10-07T20:16:34.702Z,49.24
2022-10-07T20:19:05.739Z,48.21
2022-10-07T20:21:35.627Z,48.67
2022-10-07T20:24:03.017Z,49.22
2022-10-07T20:26:35.294Z,50.44
2022-10-07T20:29:04.446Z,50.40
2022-10-07T20:31:35.098Z,51.51
2022-10-07T20:34:02.732Z,50.95
2022-10-07T20:36:32.099Z,50.85
2022-10-07T20:39:19.069Z,50.60
2022-10-07T20:42:08.335Z,51.23
2022-10-07T20:44:36.749Z,50.47
2022-10-07T20:47:08.625Z,51.04
2022-10-07T20:49:37.505Z,51.55
2022-10-07T20:52:07.228Z,51.66
2022-10-07T20:54:34.275Z,51.04
2022-10-07T20:57:01.127Z,50.81
2022-10-07T20:59:30.372Z,51.35
2022-10-07T21:01:58.347Z,51.72
2022-10-07T21:04:27.211Z,52.11
2022-10-07T21:06:57.744Z,51.18
2022-10-07T21:09:26.185Z,51.82
2022-10-07T21:11:54.342Z,51.11
2022-10-07T21:14:21.341Z,52.24
2022-10-07T21:16:48.670Z,52.07
2022-10-07T21:19:17.179Z,51.74
2022-10-07T21:21:44.127Z,52.13
2022-10-07T21:24:11.008Z,52.66
2022-10-07T21:26:38.234Z,51.64
2022-10-07T21:29:08.183Z,51.66
2022-10-07T21:31:35.853Z,51.91
2022-10-07T21:34:10.399Z,51.22
2022-10-07T21:36:49.158Z,51.66
2022-10-07T21:39:17.472Z,52.02
2022-10-07T21:41:44.298Z,52.24
2022-10-07T21:44:13.052Z,52.00
2022-10-07T21:46:42.770Z,50.74
2022-10-07T21:49:09.995Z,51.25
2022-10-07T21:51:37.018Z,50.24
2022-10-07T21:54:04.817Z,49.82
2022-10-07T21:56:33.406Z,50.20
2022-10-07T21:59:01.503Z,50.24
2022-10-07T22:01:28.766Z,49.94
2022-10-07T22:03:57.739Z,50.27
2022-10-07T22:06:45.575Z,50.68
2022-10-07T22:09:14.007Z,50.19
2022-10-07T22:11:41.079Z,49.27
2022-10-07T22:14:12.295Z,50.91
2022-10-07T22:16:40.672Z,50.86
2022-10-07T22:19:07.944Z,50.54
2022-10-07T22:21:39.273Z,51.30
2022-10-07T22:24:07.670Z,51.86
2022-10-07T22:26:45.488Z,52.02
2022-10-07T22:29:14.728Z,53.44
2022-10-07T22:31:41.959Z,53.54
2022-10-07T22:34:08.793Z,53.58
2022-10-07T22:36:36.960Z,53.22
2022-10-07T22:39:04.066Z,53.49
2022-10-07T22:41:31.035Z,53.35
2022-10-07T22:43:59.168Z,54.08
2022-10-07T22:46:28.310Z,54.38
2022-10-07T22:48:57.556Z,54.22
2022-10-07T22:51:27.023Z,54.27
2022-10-07T22:53:55.378Z,53.94
2022-10-07T22:56:23.885Z,55.08
2022-10-07T22:58:53.769Z,54.72
2022-10-07T23:01:21.973Z,55.57
2022-10-07T23:03:48.924Z,55.12
2022-10-07T23:06:18.651Z,54.15
2022-10-07T23:08:47.014Z,53.71
2022-10-07T23:11:17.066Z,55.39
2022-10-07T23:13:44.048Z,55.97
2022-10-07T23:16:13.040Z,56.25
2022-10-07T23:18:42.715Z,55.55
2022-10-07T23:21:14.108Z,55.36
2022-10-07T23:23:43.211Z,55.08
2022-10-07T23:26:11.979Z,55.68
2022-10-07T23:28:39.411Z,55.77
2022-10-07T23:31:08.457Z,55.83
2022-10-07T23:33:36.628Z,56.62
2022-10-07T23:36:05.859Z,56.96
2022-10-07T23:38:33.606Z,55.58
2022-10-07T23:41:01.228Z,56.48
2022-10-07T23:43:31.827Z,55.69
2022-10-07T23:46:02.037Z,56.43
2022-10-07T23:48:29.098Z,56.39
2022-10-07T23:50:56.015Z,55.53
2022-10-07T23:53:23.347Z,56.38
2022-10-07T23:55:53.062Z,57.20
2022-10-07T23:58:21.974Z,56.70
